sensor_id;sensor_type;location;lat;lon;timestamp;P1;durP1;ratioP1;P2;durP2;ratioP2
76113;SDS011;64845;53.086;5.834;2023-01-16T00:01:58;4.65;;;2.10;;
76113;SDS011;64845;53.086;5.834;2023-01-16T00:04:24;5.25;;;1.83;;
76113;SDS011;64845;53.086;5.834;2023-01-16T00:06:49;7.22;;;1.95;;
76113;SDS011;64845;53.086;5.834;2023-01-16T00:09:15;5.82;;;2.15;;
76113;SDS011;64845;53.086;5.834;2023-01-16T00:11:40;6.82;;;2.00;;
76113;SDS011;64845;53.086;5.834;2023-01-16T00:14:06;5.32;;;2.22;;
76113;SDS011;64845;53.086;5.834;2023-01-16T00:16:31;5.72;;;3.00;;
76113;SDS011;64845;53.086;5.834;2023-01-16T00:18:57;6.93;;;3.10;;
76113;SDS011;64845;53.086;5.834;2023-01-16T00:21:23;8.00;;;3.40;;
76113;SDS011;64845;53.086;5.834;2023-01-16T00:23:51;6.05;;;2.92;;
76113;SDS011;64845;53.086;5.834;2023-01-16T00:26:20;11.75;;;3.30;;
76113;SDS011;64845;53.086;5.834;2023-01-16T00:28:46;6.75;;;3.88;;
76113;SDS011;64845;53.086;5.834;2023-01-16T00:31:11;6.53;;;3.75;;
76113;SDS011;64845;53.086;5.834;2023-01-16T00:33:37;10.32;;;3.70;;
76113;SDS011;64845;53.086;5.834;2023-01-16T00:36:02;6.97;;;3.92;;
76113;SDS011;64845;53.086;5.834;2023-01-16T00:38:28;8.35;;;3.97;;
76113;SDS011;64845;53.086;5.834;2023-01-16T00:40:54;7.10;;;4.05;;
76113;SDS011;64845;53.086;5.834;2023-01-16T00:43:19;10.05;;;4.78;;
76113;SDS011;64845;53.086;5.834;2023-01-16T00:45:45;8.02;;;4.20;;
76113;SDS011;64845;53.086;5.834;2023-01-16T00:48:11;5.72;;;4.10;;
76113;SDS011;64845;53.086;5.834;2023-01-16T00:50:38;5.55;;;4.00;;
76113;SDS011;64845;53.086;5.834;2023-01-16T00:53:04;9.20;;;4.13;;
76113;SDS011;64845;53.086;5.834;2023-01-16T00:55:29;7.95;;;4.20;;
76113;SDS011;64845;53.086;5.834;2023-01-16T00:57:57;7.95;;;3.80;;
76113;SDS011;64845;53.086;5.834;2023-01-16T01:00:22;6.07;;;3.60;;
76113;SDS011;64845;53.086;5.834;2023-01-16T01:02:48;11.48;;;4.10;;
76113;SDS011;64845;53.086;5.834;2023-01-16T01:05:14;8.90;;;3.63;;
76113;SDS011;64845;53.086;5.834;2023-01-16T01:07:39;10.05;;;3.75;;
76113;SDS011;64845;53.086;5.834;2023-01-16T01:10:05;6.63;;;3.40;;
76113;SDS011;64845;53.086;5.834;2023-01-16T01:12:30;7.05;;;3.72;;
76113;SDS011;64845;53.086;5.834;2023-01-16T01:14:56;7.10;;;3.97;;
76113;SDS011;64845;53.086;5.834;2023-01-16T01:17:21;10.93;;;3.67;;
76113;SDS011;64845;53.086;5.834;2023-01-16T01:19:47;11.02;;;3.63;;
76113;SDS011;64845;53.086;5.834;2023-01-16T01:22:12;16.00;;;3.90;;
76113;SDS011;64845;53.086;5.834;2023-01-16T01:24:38;9.80;;;3.78;;
76113;SDS011;64845;53.086;5.834;2023-01-16T01:27:04;7.65;;;3.65;;
76113;SDS011;64845;53.086;5.834;2023-01-16T01:29:29;7.80;;;3.85;;
76113;SDS011;64845;53.086;5.834;2023-01-16T01:31:54;8.98;;;3.90;;
76113;SDS011;64845;53.086;5.834;2023-01-16T01:34:20;6.80;;;3.72;;
76113;SDS011;64845;53.086;5.834;2023-01-16T01:36:45;6.50;;;3.22;;
76113;SDS011;64845;53.086;5.834;2023-01-16T01:39:10;11.25;;;3.53;;
76113;SDS011;64845;53.086;5.834;2023-01-16T01:41:36;7.38;;;3.85;;
76113;SDS011;64845;53.086;5.834;2023-01-16T01:44:01;6.32;;;3.55;;
76113;SDS011;64845;53.086;5.834;2023-01-16T01:46:33;12.98;;;3.42;;
76113;SDS011;64845;53.086;5.834;2023-01-16T01:51:39;7.80;;;3.63;;
76113;SDS011;64845;53.086;5.834;2023-01-16T01:54:09;7.70;;;3.70;;
76113;SDS011;64845;53.086;5.834;2023-01-16T01:56:47;9.20;;;3.38;;
76113;SDS011;64845;53.086;5.834;2023-01-16T01:59:23;6.13;;;3.17;;
76113;SDS011;64845;53.086;5.834;2023-01-16T02:01:53;6.45;;;3.38;;
76113;SDS011;64845;53.086;5.834;2023-01-16T02:04:22;7.88;;;3.28;;
76113;SDS011;64845;53.086;5.834;2023-01-16T02:06:56;5.53;;;3.00;;
76113;SDS011;64845;53.086;5.834;2023-01-16T02:09:25;11.90;;;3.28;;
76113;SDS011;64845;53.086;5.834;2023-01-16T02:11:55;9.82;;;3.10;;
76113;SDS011;64845;53.086;5.834;2023-01-16T02:14:23;11.60;;;3.70;;
76113;SDS011;64845;53.086;5.834;2023-01-16T02:16:53;5.97;;;3.10;;
76113;SDS011;64845;53.086;5.834;2023-01-16T02:36:57;8.65;;;3.10;;
76113;SDS011;64845;53.086;5.834;2023-01-16T02:39:31;9.38;;;3.13;;
76113;SDS011;64845;53.086;5.834;2023-01-16T02:50:51;6.82;;;3.38;;
76113;SDS011;64845;53.086;5.834;2023-01-16T02:53:41;7.63;;;4.07;;
76113;SDS011;64845;53.086;5.834;2023-01-16T02:56:12;5.60;;;3.30;;
76113;SDS011;64845;53.086;5.834;2023-01-16T02:58:45;8.63;;;3.97;;
76113;SDS011;64845;53.086;5.834;2023-01-16T03:01:13;7.75;;;3.72;;
76113;SDS011;64845;53.086;5.834;2023-01-16T03:03:42;8.13;;;3.83;;
76113;SDS011;64845;53.086;5.834;2023-01-16T03:08:49;6.97;;;4.50;;
76113;SDS011;64845;53.086;5.834;2023-01-16T03:11:29;10.52;;;3.97;;
76113;SDS011;64845;53.086;5.834;2023-01-16T03:16:36;9.52;;;3.90;;
76113;SDS011;64845;53.086;5.834;2023-01-16T03:22:43;8.32;;;4.25;;
76113;SDS011;64845;53.086;5.834;2023-01-16T03:28:36;10.68;;;4.55;;
76113;SDS011;64845;53.086;5.834;2023-01-16T03:33:54;9.38;;;5.03;;
76113;SDS011;64845;53.086;5.834;2023-01-16T03:39:01;7.75;;;4.70;;
76113;SDS011;64845;53.086;5.834;2023-01-16T03:41:30;7.88;;;5.03;;
76113;SDS011;64845;53.086;5.834;2023-01-16T03:44:04;10.65;;;5.35;;
76113;SDS011;64845;53.086;5.834;2023-01-16T03:46:39;8.70;;;5.20;;
76113;SDS011;64845;53.086;5.834;2023-01-16T03:49:12;11.15;;;5.40;;
76113;SDS011;64845;53.086;5.834;2023-01-16T03:51:47;9.15;;;4.72;;
76113;SDS011;64845;53.086;5.834;2023-01-16T03:54:22;9.32;;;5.20;;
76113;SDS011;64845;53.086;5.834;2023-01-16T03:57:03;11.35;;;5.30;;
76113;SDS011;64845;53.086;5.834;2023-01-16T03:59:33;13.15;;;5.55;;
76113;SDS011;64845;53.086;5.834;2023-01-16T04:02:04;11.55;;;6.10;;
76113;SDS011;64845;53.086;5.834;2023-01-16T04:07:09;9.43;;;5.63;;
76113;SDS011;64845;53.086;5.834;2023-01-16T04:12:35;9.57;;;6.47;;
76113;SDS011;64845;53.086;5.834;2023-01-16T04:15:04;11.48;;;6.50;;
76113;SDS011;64845;53.086;5.834;2023-01-16T04:17:31;13.70;;;7.15;;
76113;SDS011;64845;53.086;5.834;2023-01-16T04:19:58;14.00;;;6.80;;
76113;SDS011;64845;53.086;5.834;2023-01-16T04:22:24;14.48;;;6.93;;
76113;SDS011;64845;53.086;5.834;2023-01-16T04:24:51;14.13;;;7.85;;
76113;SDS011;64845;53.086;5.834;2023-01-16T04:27:20;13.73;;;7.90;;
76113;SDS011;64845;53.086;5.834;2023-01-16T04:29:46;13.80;;;8.32;;
76113;SDS011;64845;53.086;5.834;2023-01-16T04:32:12;17.90;;;8.23;;
76113;SDS011;64845;53.086;5.834;2023-01-16T04:34:38;17.55;;;8.50;;
76113;SDS011;64845;53.086;5.834;2023-01-16T04:37:04;14.43;;;8.40;;
76113;SDS011;64845;53.086;5.834;2023-01-16T04:39:30;15.80;;;9.10;;
76113;SDS011;64845;53.086;5.834;2023-01-16T04:41:55;17.13;;;8.93;;
76113;SDS011;64845;53.086;5.834;2023-01-16T04:44:20;20.65;;;9.05;;
76113;SDS011;64845;53.086;5.834;2023-01-16T04:46:46;17.55;;;9.32;;
76113;SDS011;64845;53.086;5.834;2023-01-16T04:49:11;19.25;;;9.20;;
76113;SDS011;64845;53.086;5.834;2023-01-16T04:51:36;15.43;;;9.55;;
76113;SDS011;64845;53.086;5.834;2023-01-16T04:54:04;14.88;;;9.30;;
76113;SDS011;64845;53.086;5.834;2023-01-16T04:56:31;22.55;;;9.32;;
76113;SDS011;64845;53.086;5.834;2023-01-16T04:58:56;23.10;;;10.02;;
76113;SDS011;64845;53.086;5.834;2023-01-16T05:01:22;19.98;;;9.68;;
76113;SDS011;64845;53.086;5.834;2023-01-16T05:03:47;18.20;;;9.52;;
76113;SDS011;64845;53.086;5.834;2023-01-16T05:06:13;23.60;;;9.52;;
76113;SDS011;64845;53.086;5.834;2023-01-16T05:08:38;16.92;;;9.25;;
76113;SDS011;64845;53.086;5.834;2023-01-16T05:11:04;20.48;;;10.25;;
76113;SDS011;64845;53.086;5.834;2023-01-16T05:13:29;16.98;;;9.50;;
76113;SDS011;64845;53.086;5.834;2023-01-16T05:15:55;15.93;;;9.25;;
76113;SDS011;64845;53.086;5.834;2023-01-16T05:18:21;19.10;;;9.50;;
76113;SDS011;64845;53.086;5.834;2023-01-16T05:20:47;20.02;;;8.93;;
76113;SDS011;64845;53.086;5.834;2023-01-16T05:23:13;22.02;;;9.88;;
76113;SDS011;64845;53.086;5.834;2023-01-16T05:25:38;22.63;;;9.95;;
76113;SDS011;64845;53.086;5.834;2023-01-16T05:28:04;17.42;;;9.50;;
76113;SDS011;64845;53.086;5.834;2023-01-16T05:30:30;20.90;;;9.30;;
76113;SDS011;64845;53.086;5.834;2023-01-16T05:32:55;22.00;;;9.88;;
76113;SDS011;64845;53.086;5.834;2023-01-16T05:35:21;18.60;;;9.68;;
76113;SDS011;64845;53.086;5.834;2023-01-16T05:37:47;19.48;;;9.50;;
76113;SDS011;64845;53.086;5.834;2023-01-16T05:40:12;16.63;;;9.32;;
76113;SDS011;64845;53.086;5.834;2023-01-16T05:42:38;18.55;;;9.68;;
76113;SDS011;64845;53.086;5.834;2023-01-16T05:45:03;18.38;;;9.85;;
76113;SDS011;64845;53.086;5.834;2023-01-16T05:47:29;22.33;;;10.63;;
76113;SDS011;64845;53.086;5.834;2023-01-16T05:49:55;19.63;;;11.50;;
76113;SDS011;64845;53.086;5.834;2023-01-16T05:52:23;19.80;;;11.20;;
76113;SDS011;64845;53.086;5.834;2023-01-16T05:54:52;18.85;;;10.77;;
76113;SDS011;64845;53.086;5.834;2023-01-16T05:57:18;18.90;;;10.63;;
76113;SDS011;64845;53.086;5.834;2023-01-16T05:59:47;21.92;;;10.80;;
76113;SDS011;64845;53.086;5.834;2023-01-16T06:02:13;17.98;;;9.98;;
76113;SDS011;64845;53.086;5.834;2023-01-16T06:04:39;22.05;;;10.93;;
76113;SDS011;64845;53.086;5.834;2023-01-16T06:07:04;20.33;;;10.63;;
76113;SDS011;64845;53.086;5.834;2023-01-16T06:09:30;17.88;;;9.60;;
76113;SDS011;64845;53.086;5.834;2023-01-16T06:11:55;18.25;;;10.10;;
76113;SDS011;64845;53.086;5.834;2023-01-16T06:14:20;15.55;;;9.48;;
76113;SDS011;64845;53.086;5.834;2023-01-16T06:16:46;14.77;;;8.55;;
76113;SDS011;64845;53.086;5.834;2023-01-16T06:19:11;15.02;;;9.00;;
76113;SDS011;64845;53.086;5.834;2023-01-16T06:21:36;15.95;;;8.70;;
76113;SDS011;64845;53.086;5.834;2023-01-16T06:24:02;18.13;;;9.40;;
76113;SDS011;64845;53.086;5.834;2023-01-16T06:26:27;18.15;;;9.32;;
76113;SDS011;64845;53.086;5.834;2023-01-16T06:28:53;18.50;;;9.30;;
76113;SDS011;64845;53.086;5.834;2023-01-16T06:31:21;26.38;;;9.05;;
76113;SDS011;64845;53.086;5.834;2023-01-16T06:33:46;18.15;;;9.15;;
76113;SDS011;64845;53.086;5.834;2023-01-16T06:36:13;18.70;;;9.10;;
76113;SDS011;64845;53.086;5.834;2023-01-16T06:38:38;15.02;;;9.23;;
76113;SDS011;64845;53.086;5.834;2023-01-16T06:41:04;14.90;;;8.40;;
76113;SDS011;64845;53.086;5.834;2023-01-16T06:43:30;18.48;;;8.77;;
76113;SDS011;64845;53.086;5.834;2023-01-16T06:45:55;26.13;;;8.60;;
76113;SDS011;64845;53.086;5.834;2023-01-16T06:48:21;12.27;;;7.75;;
76113;SDS011;64845;53.086;5.834;2023-01-16T06:50:46;18.95;;;8.15;;
76113;SDS011;64845;53.086;5.834;2023-01-16T06:53:12;14.73;;;7.47;;
76113;SDS011;64845;53.086;5.834;2023-01-16T06:55:38;15.38;;;7.65;;
76113;SDS011;64845;53.086;5.834;2023-01-16T06:58:05;16.13;;;8.00;;
76113;SDS011;64845;53.086;5.834;2023-01-16T07:00:31;15.30;;;8.45;;
76113;SDS011;64845;53.086;5.834;2023-01-16T07:02:57;15.90;;;8.65;;
76113;SDS011;64845;53.086;5.834;2023-01-16T07:05:23;13.13;;;8.48;;
76113;SDS011;64845;53.086;5.834;2023-01-16T07:07:50;14.98;;;7.80;;
76113;SDS011;64845;53.086;5.834;2023-01-16T07:10:16;15.68;;;7.95;;
76113;SDS011;64845;53.086;5.834;2023-01-16T07:12:42;18.08;;;8.68;;
76113;SDS011;64845;53.086;5.834;2023-01-16T07:15:08;16.88;;;7.38;;
76113;SDS011;64845;53.086;5.834;2023-01-16T07:17:53;16.98;;;7.80;;
76113;SDS011;64845;53.086;5.834;2023-01-16T07:20:36;13.60;;;7.47;;
76113;SDS011;64845;53.086;5.834;2023-01-16T07:23:28;13.25;;;7.43;;
76113;SDS011;64845;53.086;5.834;2023-01-16T07:25:58;18.13;;;7.40;;
76113;SDS011;64845;53.086;5.834;2023-01-16T07:28:27;11.77;;;6.53;;
76113;SDS011;64845;53.086;5.834;2023-01-16T07:30:53;14.93;;;7.10;;
76113;SDS011;64845;53.086;5.834;2023-01-16T07:33:20;15.07;;;6.05;;
76113;SDS011;64845;53.086;5.834;2023-01-16T07:35:46;13.05;;;5.90;;
76113;SDS011;64845;53.086;5.834;2023-01-16T07:38:11;8.75;;;5.75;;
76113;SDS011;64845;53.086;5.834;2023-01-16T07:40:37;9.95;;;5.80;;
76113;SDS011;64845;53.086;5.834;2023-01-16T07:43:02;11.45;;;5.28;;
76113;SDS011;64845;53.086;5.834;2023-01-16T07:45:28;8.63;;;4.78;;
76113;SDS011;64845;53.086;5.834;2023-01-16T07:47:53;9.68;;;4.22;;
76113;SDS011;64845;53.086;5.834;2023-01-16T07:50:18;10.93;;;4.75;;
76113;SDS011;64845;53.086;5.834;2023-01-16T07:52:44;8.45;;;4.28;;
76113;SDS011;64845;53.086;5.834;2023-01-16T07:55:11;9.38;;;4.85;;
76113;SDS011;64845;53.086;5.834;2023-01-16T07:57:37;10.70;;;4.60;;
76113;SDS011;64845;53.086;5.834;2023-01-16T08:00:04;11.85;;;4.95;;
76113;SDS011;64845;53.086;5.834;2023-01-16T08:02:31;8.82;;;4.63;;
76113;SDS011;64845;53.086;5.834;2023-01-16T08:04:56;7.45;;;4.22;;
76113;SDS011;64845;53.086;5.834;2023-01-16T08:07:21;10.93;;;4.70;;
76113;SDS011;64845;53.086;5.834;2023-01-16T08:09:47;11.10;;;4.55;;
76113;SDS011;64845;53.086;5.834;2023-01-16T08:12:12;11.63;;;4.10;;
76113;SDS011;64845;53.086;5.834;2023-01-16T08:14:37;16.65;;;3.88;;
76113;SDS011;64845;53.086;5.834;2023-01-16T08:17:04;10.82;;;3.90;;
76113;SDS011;64845;53.086;5.834;2023-01-16T08:19:29;11.00;;;3.92;;
76113;SDS011;64845;53.086;5.834;2023-01-16T08:21:55;9.52;;;3.47;;
76113;SDS011;64845;53.086;5.834;2023-01-16T08:24:20;9.00;;;3.80;;
76113;SDS011;64845;53.086;5.834;2023-01-16T08:26:47;9.73;;;4.13;;
76113;SDS011;64845;53.086;5.834;2023-01-16T08:29:12;8.02;;;3.10;;
76113;SDS011;64845;53.086;5.834;2023-01-16T08:31:37;7.65;;;3.35;;
76113;SDS011;64845;53.086;5.834;2023-01-16T08:34:03;6.88;;;3.15;;
76113;SDS011;64845;53.086;5.834;2023-01-16T08:36:28;10.88;;;3.50;;
76113;SDS011;64845;53.086;5.834;2023-01-16T08:38:53;9.75;;;3.67;;
76113;SDS011;64845;53.086;5.834;2023-01-16T08:41:19;11.18;;;3.28;;
76113;SDS011;64845;53.086;5.834;2023-01-16T08:44:03;4.55;;;2.97;;
76113;SDS011;64845;53.086;5.834;2023-01-16T08:47:00;7.75;;;3.17;;
76113;SDS011;64845;53.086;5.834;2023-01-16T08:49:48;7.07;;;2.90;;
76113;SDS011;64845;53.086;5.834;2023-01-16T08:52:33;8.07;;;3.22;;
76113;SDS011;64845;53.086;5.834;2023-01-16T08:55:01;12.30;;;3.25;;
76113;SDS011;64845;53.086;5.834;2023-01-16T08:57:26;11.32;;;3.08;;
76113;SDS011;64845;53.086;5.834;2023-01-16T08:59:56;11.07;;;2.83;;
76113;SDS011;64845;53.086;5.834;2023-01-16T09:02:22;9.88;;;3.05;;
76113;SDS011;64845;53.086;5.834;2023-01-16T09:04:48;10.15;;;3.50;;
76113;SDS011;64845;53.086;5.834;2023-01-16T09:07:14;9.40;;;3.15;;
76113;SDS011;64845;53.086;5.834;2023-01-16T09:09:40;8.80;;;3.50;;
76113;SDS011;64845;53.086;5.834;2023-01-16T09:12:09;9.45;;;3.63;;
76113;SDS011;64845;53.086;5.834;2023-01-16T09:14:54;12.13;;;3.55;;
76113;SDS011;64845;53.086;5.834;2023-01-16T09:17:20;8.10;;;3.42;;
76113;SDS011;64845;53.086;5.834;2023-01-16T09:19:47;8.23;;;3.50;;
76113;SDS011;64845;53.086;5.834;2023-01-16T09:22:12;10.43;;;3.83;;
76113;SDS011;64845;53.086;5.834;2023-01-16T09:24:38;9.55;;;3.40;;
76113;SDS011;64845;53.086;5.834;2023-01-16T09:27:04;9.95;;;3.40;;
76113;SDS011;64845;53.086;5.834;2023-01-16T09:29:30;8.15;;;3.20;;
76113;SDS011;64845;53.086;5.834;2023-01-16T09:31:56;8.82;;;3.30;;
76113;SDS011;64845;53.086;5.834;2023-01-16T09:34:22;5.47;;;3.38;;
76113;SDS011;64845;53.086;5.834;2023-01-16T09:36:48;10.75;;;3.80;;
76113;SDS011;64845;53.086;5.834;2023-01-16T09:39:13;11.25;;;3.15;;
76113;SDS011;64845;53.086;5.834;2023-01-16T09:41:45;9.00;;;3.40;;
76113;SDS011;64845;53.086;5.834;2023-01-16T09:44:38;6.63;;;3.10;;
76113;SDS011;64845;53.086;5.834;2023-01-16T09:47:04;7.82;;;3.25;;
76113;SDS011;64845;53.086;5.834;2023-01-16T09:49:44;8.40;;;3.33;;
76113;SDS011;64845;53.086;5.834;2023-01-16T09:52:12;6.72;;;2.97;;
76113;SDS011;64845;53.086;5.834;2023-01-16T09:55:03;10.18;;;3.60;;
76113;SDS011;64845;53.086;5.834;2023-01-16T09:57:54;7.82;;;3.20;;
76113;SDS011;64845;53.086;5.834;2023-01-16T10:00:39;9.35;;;3.38;;
76113;SDS011;64845;53.086;5.834;2023-01-16T10:03:04;8.52;;;2.80;;
76113;SDS011;64845;53.086;5.834;2023-01-16T10:05:48;8.10;;;3.60;;
76113;SDS011;64845;53.086;5.834;2023-01-16T10:31:00;7.93;;;2.55;;
76113;SDS011;64845;53.086;5.834;2023-01-16T10:33:33;4.07;;;1.95;;
76113;SDS011;64845;53.086;5.834;2023-01-16T10:36:05;5.75;;;2.25;;
76113;SDS011;64845;53.086;5.834;2023-01-16T10:38:41;5.82;;;2.42;;
76113;SDS011;64845;53.086;5.834;2023-01-16T10:41:17;4.88;;;2.10;;
76113;SDS011;64845;53.086;5.834;2023-01-16T10:44:05;6.80;;;1.85;;
76113;SDS011;64845;53.086;5.834;2023-01-16T10:47:14;3.22;;;2.10;;
76113;SDS011;64845;53.086;5.834;2023-01-16T10:49:59;3.30;;;1.60;;
76113;SDS011;64845;53.086;5.834;2023-01-16T10:52:25;6.88;;;1.70;;
76113;SDS011;64845;53.086;5.834;2023-01-16T10:54:52;3.13;;;1.40;;
76113;SDS011;64845;53.086;5.834;2023-01-16T10:57:19;4.05;;;2.05;;
76113;SDS011;64845;53.086;5.834;2023-01-16T10:59:45;3.25;;;1.30;;
76113;SDS011;64845;53.086;5.834;2023-01-16T11:02:16;2.70;;;1.40;;
76113;SDS011;64845;53.086;5.834;2023-01-16T11:04:47;5.50;;;1.55;;
76113;SDS011;64845;53.086;5.834;2023-01-16T11:07:22;3.10;;;1.42;;
76113;SDS011;64845;53.086;5.834;2023-01-16T11:09:52;1.65;;;1.35;;
76113;SDS011;64845;53.086;5.834;2023-01-16T11:12:25;2.70;;;1.45;;
76113;SDS011;64845;53.086;5.834;2023-01-16T11:15:13;1.17;;;1.00;;
76113;SDS011;64845;53.086;5.834;2023-01-16T11:18:21;2.83;;;1.05;;
76113;SDS011;64845;53.086;5.834;2023-01-16T11:21:00;2.00;;;0.95;;
76113;SDS011;64845;53.086;5.834;2023-01-16T11:23:49;1.35;;;1.20;;
76113;SDS011;64845;53.086;5.834;2023-01-16T11:26:22;2.42;;;1.20;;
76113;SDS011;64845;53.086;5.834;2023-01-16T11:28:48;2.72;;;1.10;;
76113;SDS011;64845;53.086;5.834;2023-01-16T11:31:17;4.68;;;1.10;;
76113;SDS011;64845;53.086;5.834;2023-01-16T11:33:47;2.13;;;1.13;;
76113;SDS011;64845;53.086;5.834;2023-01-16T11:36:19;1.20;;;1.10;;
76113;SDS011;64845;53.086;5.834;2023-01-16T11:38:46;1.40;;;1.30;;
76113;SDS011;64845;53.086;5.834;2023-01-16T11:41:16;3.15;;;1.20;;
76113;SDS011;64845;53.086;5.834;2023-01-16T11:43:45;4.13;;;1.30;;
76113;SDS011;64845;53.086;5.834;2023-01-16T11:46:46;1.20;;;1.10;;
76113;SDS011;64845;53.086;5.834;2023-01-16T11:49:18;1.88;;;1.30;;
76113;SDS011;64845;53.086;5.834;2023-01-16T11:51:49;1.30;;;1.20;;
76113;SDS011;64845;53.086;5.834;2023-01-16T11:54:19;1.10;;;1.02;;
76113;SDS011;64845;53.086;5.834;2023-01-16T12:02:13;1.67;;;1.23;;
76113;SDS011;64845;53.086;5.834;2023-01-16T12:13:07;1.02;;;0.95;;
76113;SDS011;64845;53.086;5.834;2023-01-16T12:21:14;3.53;;;1.30;;
76113;SDS011;64845;53.086;5.834;2023-01-16T12:31:55;2.10;;;1.27;;
76113;SDS011;64845;53.086;5.834;2023-01-16T12:37:34;2.25;;;1.30;;
76113;SDS011;64845;53.086;5.834;2023-01-16T12:51:56;2.75;;;1.45;;
76113;SDS011;64845;53.086;5.834;2023-01-16T12:54:33;2.53;;;1.30;;
76113;SDS011;64845;53.086;5.834;2023-01-16T13:02:24;3.47;;;1.75;;
76113;SDS011;64845;53.086;5.834;2023-01-16T13:05:18;1.88;;;1.52;;
76113;SDS011;64845;53.086;5.834;2023-01-16T13:07:52;2.42;;;1.40;;
76113;SDS011;64845;53.086;5.834;2023-01-16T13:10:31;4.35;;;1.70;;
76113;SDS011;64845;53.086;5.834;2023-01-16T13:13:19;2.35;;;1.90;;
76113;SDS011;64845;53.086;5.834;2023-01-16T13:18:26;2.60;;;1.70;;
76113;SDS011;64845;53.086;5.834;2023-01-16T13:20:58;3.53;;;1.95;;
76113;SDS011;64845;53.086;5.834;2023-01-16T13:23:36;1.80;;;1.52;;
76113;SDS011;64845;53.086;5.834;2023-01-16T13:26:31;1.60;;;1.50;;
76113;SDS011;64845;53.086;5.834;2023-01-16T13:31:48;2.13;;;1.85;;
76113;SDS011;64845;53.086;5.834;2023-01-16T13:39:51;5.93;;;3.40;;
76113;SDS011;64845;53.086;5.834;2023-01-16T13:42:41;4.47;;;2.15;;
76113;SDS011;64845;53.086;5.834;2023-01-16T13:45:34;2.58;;;2.00;;
76113;SDS011;64845;53.086;5.834;2023-01-16T13:48:19;2.58;;;1.90;;
76113;SDS011;64845;53.086;5.834;2023-01-16T13:50:52;2.78;;;2.10;;
76113;SDS011;64845;53.086;5.834;2023-01-16T13:53:31;2.90;;;1.88;;
76113;SDS011;64845;53.086;5.834;2023-01-16T13:56:13;5.47;;;3.35;;
76113;SDS011;64845;53.086;5.834;2023-01-16T13:58:45;2.83;;;1.95;;
76113;SDS011;64845;53.086;5.834;2023-01-16T14:01:32;4.75;;;1.50;;
76113;SDS011;64845;53.086;5.834;2023-01-16T14:06:44;2.92;;;1.90;;
76113;SDS011;64845;53.086;5.834;2023-01-16T14:09:19;2.65;;;1.95;;
76113;SDS011;64845;53.086;5.834;2023-01-16T14:17:29;6.03;;;2.40;;
76113;SDS011;64845;53.086;5.834;2023-01-16T14:23:01;2.45;;;1.90;;
76113;SDS011;64845;53.086;5.834;2023-01-16T14:25:49;3.75;;;1.73;;
76113;SDS011;64845;53.086;5.834;2023-01-16T14:28:17;2.65;;;1.80;;
76113;SDS011;64845;53.086;5.834;2023-01-16T14:30:44;4.10;;;2.33;;
76113;SDS011;64845;53.086;5.834;2023-01-16T14:33:16;3.00;;;2.00;;
76113;SDS011;64845;53.086;5.834;2023-01-16T14:35:46;4.55;;;1.90;;
76113;SDS011;64845;53.086;5.834;2023-01-16T14:40:39;4.55;;;1.90;;
76113;SDS011;64845;53.086;5.834;2023-01-16T14:43:32;4.10;;;2.45;;
76113;SDS011;64845;53.086;5.834;2023-01-16T14:55:58;3.83;;;2.22;;
76113;SDS011;64845;53.086;5.834;2023-01-16T14:58:32;4.78;;;3.47;;
76113;SDS011;64845;53.086;5.834;2023-01-16T15:00:59;4.72;;;2.92;;
76113;SDS011;64845;53.086;5.834;2023-01-16T15:03:58;4.37;;;3.20;;
76113;SDS011;64845;53.086;5.834;2023-01-16T15:06:27;5.80;;;3.78;;
76113;SDS011;64845;53.086;5.834;2023-01-16T15:08:59;4.25;;;3.40;;
76113;SDS011;64845;53.086;5.834;2023-01-16T15:11:27;5.30;;;3.38;;
76113;SDS011;64845;53.086;5.834;2023-01-16T15:14:03;5.18;;;2.88;;
76113;SDS011;64845;53.086;5.834;2023-01-16T15:16:49;18.23;;;3.50;;
76113;SDS011;64845;53.086;5.834;2023-01-16T15:19:33;6.47;;;3.00;;
76113;SDS011;64845;53.086;5.834;2023-01-16T15:22:19;3.90;;;3.40;;
76113;SDS011;64845;53.086;5.834;2023-01-16T15:25:04;6.07;;;3.33;;
76113;SDS011;64845;53.086;5.834;2023-01-16T15:27:44;4.82;;;3.30;;
76113;SDS011;64845;53.086;5.834;2023-01-16T15:30:16;4.45;;;3.38;;
76113;SDS011;64845;53.086;5.834;2023-01-16T15:32:56;6.85;;;3.80;;
76113;SDS011;64845;53.086;5.834;2023-01-16T15:35:41;7.53;;;4.15;;
76113;SDS011;64845;53.086;5.834;2023-01-16T15:38:08;4.43;;;3.97;;
76113;SDS011;64845;53.086;5.834;2023-01-16T15:40:35;6.68;;;4.10;;
76113;SDS011;64845;53.086;5.834;2023-01-16T15:43:01;7.40;;;3.90;;
76113;SDS011;64845;53.086;5.834;2023-01-16T15:46:05;4.55;;;3.70;;
76113;SDS011;64845;53.086;5.834;2023-01-16T15:51:41;4.30;;;3.90;;
76113;SDS011;64845;53.086;5.834;2023-01-16T15:54:14;8.95;;;4.05;;
76113;SDS011;64845;53.086;5.834;2023-01-16T15:56:44;9.35;;;5.70;;
76113;SDS011;64845;53.086;5.834;2023-01-16T15:59:31;18.08;;;11.82;;
76113;SDS011;64845;53.086;5.834;2023-01-16T16:04:50;24.48;;;12.25;;
76113;SDS011;64845;53.086;5.834;2023-01-16T16:07:18;19.73;;;13.32;;
76113;SDS011;64845;53.086;5.834;2023-01-16T16:09:46;12.63;;;9.45;;
76113;SDS011;64845;53.086;5.834;2023-01-16T16:12:14;14.35;;;5.15;;
76113;SDS011;64845;53.086;5.834;2023-01-16T16:14:40;6.20;;;5.10;;
76113;SDS011;64845;53.086;5.834;2023-01-16T16:22:49;7.63;;;5.15;;
76113;SDS011;64845;53.086;5.834;2023-01-16T16:25:22;11.40;;;6.63;;
76113;SDS011;64845;53.086;5.834;2023-01-16T16:27:49;9.32;;;6.95;;
76113;SDS011;64845;53.086;5.834;2023-01-16T16:30:33;11.25;;;7.68;;
76113;SDS011;64845;53.086;5.834;2023-01-16T16:32:58;10.70;;;7.57;;
76113;SDS011;64845;53.086;5.834;2023-01-16T16:35:46;13.90;;;10.55;;
76113;SDS011;64845;53.086;5.834;2023-01-16T16:48:58;7.30;;;6.15;;
76113;SDS011;64845;53.086;5.834;2023-01-16T16:51:32;6.85;;;5.32;;
76113;SDS011;64845;53.086;5.834;2023-01-16T16:56:26;9.35;;;5.63;;
76113;SDS011;64845;53.086;5.834;2023-01-16T16:58:54;9.52;;;6.80;;
76113;SDS011;64845;53.086;5.834;2023-01-16T17:01:21;8.20;;;5.82;;
76113;SDS011;64845;53.086;5.834;2023-01-16T17:03:52;5.03;;;4.45;;
76113;SDS011;64845;53.086;5.834;2023-01-16T17:06:23;3.35;;;2.47;;
76113;SDS011;64845;53.086;5.834;2023-01-16T17:08:52;2.88;;;2.50;;
76113;SDS011;64845;53.086;5.834;2023-01-16T17:11:17;3.63;;;2.75;;
76113;SDS011;64845;53.086;5.834;2023-01-16T17:13:43;3.60;;;2.60;;
76113;SDS011;64845;53.086;5.834;2023-01-16T17:16:15;3.33;;;2.70;;
76113;SDS011;64845;53.086;5.834;2023-01-16T17:18:43;2.70;;;2.20;;
76113;SDS011;64845;53.086;5.834;2023-01-16T17:21:09;2.13;;;1.80;;
76113;SDS011;64845;53.086;5.834;2023-01-16T17:23:45;3.47;;;2.53;;
76113;SDS011;64845;53.086;5.834;2023-01-16T17:26:12;1.58;;;1.48;;
76113;SDS011;64845;53.086;5.834;2023-01-16T17:28:40;2.78;;;2.20;;
76113;SDS011;64845;53.086;5.834;2023-01-16T17:31:06;3.05;;;2.40;;
76113;SDS011;64845;53.086;5.834;2023-01-16T17:33:37;3.95;;;2.05;;
76113;SDS011;64845;53.086;5.834;2023-01-16T17:36:02;2.92;;;2.00;;
76113;SDS011;64845;53.086;5.834;2023-01-16T17:38:37;9.02;;;3.58;;
76113;SDS011;64845;53.086;5.834;2023-01-16T17:41:04;5.53;;;2.30;;
76113;SDS011;64845;53.086;5.834;2023-01-16T17:43:32;7.28;;;2.88;;
76113;SDS011;64845;53.086;5.834;2023-01-16T17:46:16;12.13;;;3.30;;
76113;SDS011;64845;53.086;5.834;2023-01-16T17:48:46;14.43;;;4.05;;
76113;SDS011;64845;53.086;5.834;2023-01-16T17:51:12;5.25;;;2.30;;
76113;SDS011;64845;53.086;5.834;2023-01-16T17:53:37;8.85;;;3.15;;
76113;SDS011;64845;53.086;5.834;2023-01-16T17:56:04;3.65;;;1.67;;
76113;SDS011;64845;53.086;5.834;2023-01-16T17:58:38;10.68;;;3.53;;
76113;SDS011;64845;53.086;5.834;2023-01-16T18:01:10;9.25;;;3.33;;
76113;SDS011;64845;53.086;5.834;2023-01-16T18:03:38;1.52;;;1.33;;
76113;SDS011;64845;53.086;5.834;2023-01-16T18:06:05;2.42;;;1.42;;